createdAt,value
2023-04-04T00:00:38.949Z,50.50
2023-04-04T00:03:07.313Z,50.50
2023-04-04T00:05:36.201Z,50.50
2023-04-04T00:08:04.284Z,50.50
2023-04-04T00:10:32.258Z,50.50
2023-04-04T00:13:00.205Z,50.50
2023-04-04T00:15:28.272Z,50.50
2023-04-04T00:17:58.501Z,51.10
2023-04-04T00:20:26.500Z,50.50
2023-04-04T00:22:54.393Z,50.50
2023-04-04T00:25:22.266Z,50.50
2023-04-04T00:27:50.241Z,50.50
2023-04-04T00:30:18.113Z,50.50
2023-04-04T00:32:46.066Z,50.50
2023-04-04T00:35:15.259Z,50.50
2023-04-04T00:37:43.544Z,50.50
2023-04-04T00:40:11.592Z,50.50
2023-04-04T00:42:39.627Z,50.50
2023-04-04T00:45:08.970Z,50.50
2023-04-04T00:47:38.763Z,50.40
2023-04-04T00:50:08.256Z,50.40
2023-04-04T00:52:37.582Z,50.40
2023-04-04T00:55:06.426Z,50.40
2023-04-04T00:57:35.612Z,50.40
2023-04-04T01:00:06.616Z,50.40
2023-04-04T01:02:34.540Z,50.40
2023-04-04T01:05:04.173Z,50.40
2023-04-04T01:07:32.661Z,50.40
2023-04-04T01:10:03.954Z,50.40
2023-04-04T01:12:32.572Z,50.40
2023-04-04T01:15:00.588Z,50.40
2023-04-04T01:17:29.082Z,50.40
2023-04-04T01:20:04.508Z,50.40
2023-04-04T01:22:35.419Z,50.40
2023-04-04T01:25:06.896Z,50.40
2023-04-04T01:27:36.178Z,50.40
2023-04-04T01:30:05.208Z,50.40
2023-04-04T01:32:41.103Z,50.40
2023-04-04T01:35:21.190Z,50.40
2023-04-04T01:37:56.964Z,50.40
2023-04-04T01:40:28.201Z,50.40
2023-04-04T01:42:58.652Z,50.40
2023-04-04T01:45:27.358Z,50.40
2023-04-04T01:47:55.236Z,50.40
2023-04-04T01:50:23.653Z,50.40
2023-04-04T01:52:51.854Z,50.30
2023-04-04T01:55:20.086Z,50.30
2023-04-04T01:57:48.027Z,50.30
2023-04-04T02:00:17.660Z,50.30
2023-04-04T02:02:45.975Z,50.30
2023-04-04T02:05:13.967Z,50.40
2023-04-04T02:07:42.022Z,50.20
2023-04-04T02:10:10.297Z,50.40
2023-04-04T02:12:38.184Z,50.40
2023-04-04T02:15:07.156Z,50.40
2023-04-04T02:17:36.424Z,50.40
2023-04-04T02:20:04.709Z,50.30
2023-04-04T02:22:32.611Z,50.30
2023-04-04T02:25:02.689Z,50.20
2023-04-04T02:27:30.576Z,50.30
2023-04-04T02:29:58.660Z,50.30
2023-04-04T02:32:27.339Z,50.20
2023-04-04T02:34:56.974Z,50.30
2023-04-04T02:37:24.924Z,50.30
2023-04-04T02:39:52.786Z,50.20
2023-04-04T02:42:20.796Z,50.30
2023-04-04T02:44:48.649Z,50.20
2023-04-04T02:47:16.834Z,50.20
2023-04-04T02:49:44.776Z,50.30
2023-04-04T02:52:13.968Z,50.20
2023-04-04T02:54:41.808Z,50.30
2023-04-04T02:57:09.683Z,50.20
2023-04-04T02:59:37.811Z,50.20
2023-04-04T03:02:05.685Z,50.20
2023-04-04T03:04:33.593Z,50.20
2023-04-04T03:07:01.447Z,50.20
2023-04-04T03:09:30.723Z,50.20
2023-04-04T03:11:58.751Z,50.20
2023-04-04T03:14:26.722Z,50.20
2023-04-04T03:16:54.930Z,50.10
2023-04-04T03:19:22.906Z,50.20
2023-04-04T03:21:50.816Z,50.10
2023-04-04T03:24:18.755Z,50.10
2023-04-04T03:26:47.915Z,50.20
2023-04-04T03:29:16.328Z,50.10
2023-04-04T03:31:44.185Z,50.10
2023-04-04T03:34:12.517Z,50.10
2023-04-04T03:36:40.388Z,50.10
2023-04-04T03:39:08.311Z,50.10
2023-04-04T03:41:36.958Z,50.10
2023-04-04T03:44:06.680Z,50.10
2023-04-04T03:46:35.893Z,50.10
2023-04-04T03:49:04.067Z,50.10
2023-04-04T03:51:32.029Z,50.10
2023-04-04T03:53:59.880Z,50.10
2023-04-04T03:56:28.029Z,50.10
2023-04-04T03:58:57.534Z,50.10
2023-04-04T04:01:27.017Z,50.10
2023-04-04T04:03:55.048Z,50.10
2023-04-04T04:06:23.092Z,50.10
2023-04-04T04:08:51.255Z,50.10
2023-04-04T04:11:19.217Z,50.10
2023-04-04T04:13:47.058Z,50.10
2023-04-04T04:16:14.939Z,50.00
2023-04-04T04:18:44.240Z,50.10
2023-04-04T04:21:12.129Z,50.00
2023-04-04T04:23:40.334Z,50.00
2023-04-04T04:26:08.227Z,50.00
2023-04-04T04:28:36.432Z,50.00
2023-04-04T04:31:08.234Z,50.10
2023-04-04T04:33:36.592Z,50.70
2023-04-04T04:36:07.173Z,50.00
2023-04-04T04:38:35.180Z,50.00
2023-04-04T04:41:03.096Z,50.00
2023-04-04T04:43:31.186Z,50.00
2023-04-04T04:45:59.137Z,50.00
2023-04-04T04:48:27.007Z,50.00
2023-04-04T04:50:54.894Z,50.00
2023-04-04T04:53:24.167Z,50.00
2023-04-04T04:55:52.729Z,50.00
2023-04-04T04:58:24.369Z,50.00
2023-04-04T05:00:57.894Z,50.00
2023-04-04T05:03:26.302Z,50.00
2023-04-04T05:05:54.216Z,50.00
2023-04-04T05:08:23.423Z,50.00
2023-04-04T05:10:52.775Z,50.00
2023-04-04T05:13:20.743Z,50.00
2023-04-04T05:15:48.724Z,50.00
2023-04-04T05:18:16.528Z,50.00
2023-04-04T05:20:44.443Z,50.00
2023-04-04T05:23:12.296Z,50.00
2023-04-04T05:25:41.568Z,49.90
2023-04-04T05:28:09.575Z,50.00
2023-04-04T05:30:37.682Z,50.00
2023-04-04T05:33:05.783Z,49.90
2023-04-04T05:35:33.798Z,49.90
2023-04-04T05:38:01.754Z,50.00
2023-04-04T05:40:29.622Z,49.90
2023-04-04T05:42:59.701Z,49.90
2023-04-04T05:45:27.705Z,49.90
2023-04-04T05:47:56.156Z,50.00
2023-04-04T05:50:24.336Z,50.60
2023-04-04T05:52:54.866Z,50.00
2023-04-04T05:55:22.824Z,49.90
2023-04-04T05:57:51.446Z,49.90
2023-04-04T06:00:21.076Z,49.90
2023-04-04T06:02:49.057Z,50.00
2023-04-04T06:05:17.422Z,49.90
2023-04-04T06:07:45.402Z,49.90
2023-04-04T06:10:13.809Z,49.90
2023-04-04T06:12:41.674Z,50.00
2023-04-04T06:15:10.436Z,49.90
2023-04-04T06:17:40.616Z,49.90
2023-04-04T06:20:09.773Z,49.80
2023-04-04T06:22:37.780Z,49.90
2023-04-04T06:25:06.525Z,49.90
2023-04-04T06:27:34.763Z,49.90
2023-04-04T06:30:02.920Z,49.90
2023-04-04T06:32:32.592Z,49.90
2023-04-04T06:35:01.763Z,49.90
2023-04-04T06:37:29.636Z,49.80
2023-04-04T06:39:58.527Z,49.90
2023-04-04T06:42:27.042Z,49.90
2023-04-04T06:44:54.882Z,49.90
2023-04-04T06:47:22.842Z,49.90
2023-04-04T06:49:50.785Z,49.90
2023-04-04T06:52:20.032Z,49.90
2023-04-04T06:54:47.980Z,49.90
2023-04-04T06:57:15.791Z,49.90
2023-04-04T06:59:45.156Z,49.90
2023-04-04T07:02:13.251Z,49.80
2023-04-04T07:04:41.901Z,49.90
2023-04-04T07:07:09.769Z,49.90
2023-04-04T07:09:39.185Z,49.80
2023-04-04T07:12:07.242Z,49.90
2023-04-04T07:14:35.072Z,49.90
2023-04-04T07:17:10.683Z,49.90
2023-04-04T07:19:45.287Z,49.90
2023-04-04T07:22:13.250Z,49.80
2023-04-04T07:24:43.012Z,49.90
2023-04-04T07:27:11.293Z,49.80
2023-04-04T07:29:39.145Z,49.80
2023-04-04T07:32:07.380Z,49.70
2023-04-04T07:34:35.336Z,49.90
2023-04-04T07:37:03.615Z,49.70
2023-04-04T07:39:32.001Z,49.80
2023-04-04T07:42:01.370Z,49.80
2023-04-04T07:44:29.225Z,49.80
2023-04-04T07:47:08.674Z,49.80
2023-04-04T07:49:37.628Z,49.70
2023-04-04T07:52:06.293Z,49.70
2023-04-04T07:54:34.206Z,49.70
2023-04-04T07:57:05.427Z,49.70
2023-04-04T07:59:33.395Z,49.70
2023-04-04T08:02:01.237Z,49.70
2023-04-04T08:04:29.293Z,49.70
2023-04-04T08:06:57.157Z,49.70
2023-04-04T08:09:25.474Z,49.70
2023-04-04T08:11:53.607Z,49.70
2023-04-04T08:14:22.810Z,49.70
2023-04-04T08:16:50.651Z,49.70
2023-04-04T08:19:18.509Z,49.70
2023-04-04T08:21:46.400Z,49.70
2023-04-04T08:24:14.295Z,49.70
2023-04-04T08:26:45.152Z,49.70
2023-04-04T08:29:16.992Z,49.70
2023-04-04T08:31:46.217Z,49.70
2023-04-04T08:34:14.085Z,49.70
2023-04-04T08:36:42.256Z,49.70
2023-04-04T08:39:10.103Z,49.70
2023-04-04T08:41:38.144Z,50.40
2023-04-04T08:44:07.710Z,49.70
2023-04-04T08:46:36.016Z,49.70
2023-04-04T08:49:06.931Z,49.60
2023-04-04T08:51:37.051Z,49.70
2023-04-04T08:54:05.197Z,49.60
2023-04-04T08:56:34.660Z,49.70
2023-04-04T08:59:02.735Z,49.70
2023-04-04T09:01:30.784Z,49.60
2023-04-04T09:03:59.367Z,49.60
2023-04-04T09:06:29.393Z,49.70
2023-04-04T09:08:59.326Z,49.60
2023-04-04T09:11:28.841Z,49.70
2023-04-04T09:13:58.449Z,49.70
2023-04-04T09:16:28.382Z,49.60
2023-04-04T09:18:56.240Z,49.70
2023-04-04T09:21:24.120Z,49.70
2023-04-04T09:24:01.424Z,49.60
2023-04-04T09:26:29.321Z,49.60
2023-04-04T09:28:57.503Z,49.60
2023-04-04T09:31:26.377Z,49.70
2023-04-04T09:33:54.382Z,49.60
2023-04-04T09:36:22.539Z,49.60
2023-04-04T09:38:55.365Z,49.60
2023-04-04T09:41:27.248Z,49.70
2023-04-04T09:43:56.389Z,49.60
2023-04-04T09:46:25.251Z,49.70
2023-04-04T09:48:55.325Z,49.70
2023-04-04T09:51:23.188Z,49.70
2023-04-04T09:53:52.550Z,49.70
2023-04-04T09:56:21.042Z,49.70
2023-04-04T10:01:22.049Z,49.70
2023-04-04T10:03:53.598Z,49.60
2023-04-04T10:06:22.441Z,49.70
2023-04-04T10:08:51.097Z,49.70
2023-04-04T10:11:30.559Z,49.60
2023-04-04T10:14:00.598Z,49.70
2023-04-04T10:16:32.444Z,49.70
2023-04-04T10:19:02.482Z,49.60
2023-04-04T10:21:31.381Z,49.60
2023-04-04T10:24:00.330Z,49.60
2023-04-04T10:26:28.230Z,49.60
2023-04-04T10:28:57.097Z,49.70
2023-04-04T10:31:28.358Z,49.60
2023-04-04T10:34:08.285Z,49.70
2023-04-04T10:36:44.479Z,49.60
2023-04-04T10:39:15.500Z,49.70
2023-04-04T10:41:43.821Z,49.60
2023-04-04T10:44:19.490Z,49.70
2023-04-04T10:46:54.042Z,49.60
2023-04-04T10:49:23.433Z,49.70
2023-04-04T10:51:56.446Z,49.70
2023-04-04T10:54:26.487Z,49.60
2023-04-04T10:56:56.652Z,49.60
2023-04-04T10:59:26.668Z,49.70
2023-04-04T11:01:59.138Z,49.60
2023-04-04T11:04:33.036Z,49.60
2023-04-04T11:07:17.210Z,49.60
2023-04-04T11:09:53.507Z,49.60
2023-04-04T11:12:29.971Z,49.60
2023-04-04T11:15:07.680Z,49.60
2023-04-04T11:18:00.182Z,49.60
2023-04-04T11:20:33.359Z,49.60
2023-04-04T11:23:09.906Z,49.60
2023-04-04T11:25:42.653Z,49.60
2023-04-04T11:28:15.765Z,49.60
2023-04-04T11:30:48.647Z,49.70
2023-04-04T11:33:30.719Z,49.70
2023-04-04T11:36:08.547Z,49.70
2023-04-04T11:38:36.690Z,49.70
2023-04-04T11:41:04.698Z,49.70
2023-04-04T11:43:34.861Z,49.70
2023-04-04T11:46:08.909Z,49.70
2023-04-04T11:48:39.981Z,49.70
2023-04-04T11:51:08.412Z,49.70
2023-04-04T11:53:36.250Z,49.70
2023-04-04T11:56:04.159Z,49.70
2023-04-04T11:58:37.052Z,49.70
2023-04-04T12:01:05.413Z,49.70
2023-04-04T12:03:33.517Z,49.80
2023-04-04T12:06:03.333Z,49.70
2023-04-04T12:08:33.597Z,49.70
2023-04-04T12:11:06.540Z,49.80
2023-04-04T12:13:34.662Z,49.80
2023-04-04T12:16:03.340Z,49.80
2023-04-04T12:18:31.197Z,49.70
2023-04-04T12:20:59.086Z,49.80
2023-04-04T12:23:28.646Z,49.80
2023-04-04T12:25:57.893Z,49.80
2023-04-04T12:28:27.285Z,49.70
2023-04-04T12:30:56.604Z,49.70
2023-04-04T12:33:24.541Z,49.80
2023-04-04T12:35:54.784Z,49.70
2023-04-04T12:38:22.817Z,49.80
2023-04-04T12:40:52.965Z,49.70
2023-04-04T12:43:23.992Z,49.70
2023-04-04T12:45:52.782Z,49.60
2023-04-04T12:48:22.576Z,49.60
2023-04-04T12:50:53.066Z,49.70
2023-04-04T12:53:28.890Z,49.60
2023-04-04T12:56:03.537Z,49.60
2023-04-04T12:58:34.311Z,49.60
2023-04-04T13:01:04.809Z,49.60
2023-04-04T13:03:34.786Z,49.60
2023-04-04T13:06:02.929Z,49.70
2023-04-04T13:08:31.607Z,49.70
2023-04-04T13:11:04.159Z,49.70
2023-04-04T13:13:33.527Z,49.70
2023-04-04T13:16:01.485Z,49.70
2023-04-04T13:18:35.530Z,49.70
2023-04-04T13:21:03.664Z,49.70
2023-04-04T13:23:31.796Z,49.70
2023-04-04T13:26:01.353Z,49.70
2023-04-04T13:28:29.349Z,49.60
2023-04-04T13:30:57.743Z,49.60
2023-04-04T13:33:25.599Z,49.70
2023-04-04T13:35:53.569Z,49.70
2023-04-04T13:38:21.397Z,49.80
2023-04-04T13:40:49.249Z,49.80
2023-04-04T13:43:18.498Z,49.80
2023-04-04T13:45:46.558Z,49.80
2023-04-04T13:48:14.575Z,49.90
2023-04-04T13:50:47.379Z,49.80
2023-04-04T13:53:15.244Z,49.90
2023-04-04T13:56:01.266Z,49.90
2023-04-04T13:58:32.906Z,49.90
2023-04-04T14:01:03.932Z,49.90
2023-04-04T14:03:32.375Z,49.90
2023-04-04T14:06:06.368Z,50.00
2023-04-04T14:08:38.042Z,50.00
2023-04-04T14:11:06.091Z,50.00
2023-04-04T14:13:36.228Z,50.00
2023-04-04T14:16:04.562Z,50.00
2023-04-04T14:18:32.625Z,50.00
2023-04-04T14:21:00.514Z,50.00
2023-04-04T14:23:30.540Z,50.00
2023-04-04T14:25:58.438Z,50.00
2023-04-04T14:28:26.397Z,50.00
2023-04-04T14:30:56.214Z,50.00
2023-04-04T14:33:24.113Z,50.00
2023-04-04T14:35:52.021Z,50.00
2023-04-04T14:38:19.906Z,50.00
2023-04-04T14:40:48.825Z,50.00
2023-04-04T14:43:17.010Z,50.00
2023-04-04T14:45:44.875Z,50.00
2023-04-04T14:48:14.090Z,50.00
2023-04-04T14:50:42.868Z,50.00
2023-04-04T14:53:10.786Z,50.00
2023-04-04T14:55:39.179Z,50.00
2023-04-04T14:58:07.244Z,50.00
2023-04-04T15:00:36.123Z,50.00
2023-04-04T15:03:07.239Z,50.00
2023-04-04T15:05:36.691Z,50.00
2023-04-04T15:08:04.679Z,50.00
2023-04-04T15:10:32.599Z,50.00
2023-04-04T15:13:00.512Z,50.00
2023-04-04T15:15:29.266Z,50.00
2023-04-04T15:17:57.224Z,50.10
2023-04-04T15:20:25.205Z,49.90
2023-04-04T15:22:54.486Z,50.10
2023-04-04T15:25:22.417Z,50.00
2023-04-04T15:27:50.442Z,50.10
2023-04-04T15:30:18.836Z,50.10
2023-04-04T15:32:46.695Z,50.10
2023-04-04T15:35:18.327Z,50.10
2023-04-04T15:37:46.545Z,50.10
2023-04-04T15:40:16.400Z,50.10
2023-04-04T15:42:44.622Z,50.10
2023-04-04T15:45:13.974Z,50.10
2023-04-04T15:47:42.338Z,50.00
2023-04-04T15:50:11.654Z,50.00
2023-04-04T15:52:39.916Z,50.00
2023-04-04T15:55:12.054Z,50.00
2023-04-04T15:57:44.310Z,50.00
2023-04-04T16:00:13.883Z,50.00
2023-04-04T16:02:42.106Z,50.00
2023-04-04T16:05:10.659Z,50.00
2023-04-04T16:07:38.493Z,50.00
2023-04-04T16:10:07.557Z,50.00
2023-04-04T16:12:35.426Z,50.00
2023-04-04T16:15:05.432Z,50.00
2023-04-04T16:17:33.408Z,50.00
2023-04-04T16:20:01.667Z,50.00
2023-04-04T16:22:29.559Z,50.00
2023-04-04T16:24:57.402Z,50.00
2023-04-04T16:27:25.392Z,50.00
2023-04-04T16:29:53.292Z,50.00
2023-04-04T16:32:22.609Z,49.90
2023-04-04T16:34:50.452Z,49.90
2023-04-04T16:37:18.318Z,49.90
2023-04-04T16:39:47.044Z,49.90
2023-04-04T16:42:19.175Z,49.80
2023-04-04T16:44:47.818Z,49.90
2023-04-04T16:47:15.891Z,49.80
2023-04-04T16:49:47.117Z,49.80
2023-04-04T16:52:15.631Z,49.80
2023-04-04T16:54:43.658Z,49.80
2023-04-04T16:57:11.640Z,49.80
2023-04-04T16:59:39.764Z,49.80
2023-04-04T17:02:08.960Z,49.80
2023-04-04T17:04:39.649Z,49.80
2023-04-04T17:07:10.965Z,49.80
2023-04-04T17:09:39.239Z,49.80
2023-04-04T17:12:07.437Z,49.80
2023-04-04T17:14:35.589Z,49.80
2023-04-04T17:17:05.216Z,49.80
2023-04-04T17:19:34.863Z,49.80
2023-04-04T17:22:03.261Z,49.70
2023-04-04T17:24:32.577Z,49.70
2023-04-04T17:27:02.338Z,49.70
2023-04-04T17:29:30.705Z,49.70
2023-04-04T17:31:59.705Z,49.70
2023-04-04T17:34:28.181Z,49.70
2023-04-04T17:36:56.755Z,49.70
2023-04-04T17:39:24.729Z,49.70
2023-04-04T17:41:54.158Z,49.80
2023-04-04T17:44:22.936Z,49.80
2023-04-04T17:46:51.066Z,49.80
2023-04-04T17:49:19.805Z,49.80
2023-04-04T17:51:48.846Z,49.80
2023-04-04T17:54:17.378Z,49.90
2023-04-04T17:56:46.766Z,49.90
2023-04-04T17:59:17.470Z,49.90
2023-04-04T18:01:45.732Z,49.90
2023-04-04T18:04:13.690Z,49.90
2023-04-04T18:06:41.928Z,49.90
2023-04-04T18:09:10.215Z,49.90
2023-04-04T18:11:39.450Z,49.90
2023-04-04T18:14:08.632Z,49.80
2023-04-04T18:16:39.803Z,49.80
2023-04-04T18:19:09.346Z,49.80
2023-04-04T18:21:37.532Z,49.80
2023-04-04T18:24:07.403Z,49.90
2023-04-04T18:26:35.308Z,49.90
2023-04-04T18:29:03.298Z,49.90
2023-04-04T18:31:31.250Z,49.90
2023-04-04T18:34:00.871Z,49.90
2023-04-04T18:36:28.924Z,50.00
2023-04-04T18:38:56.868Z,50.00
2023-04-04T18:41:24.873Z,50.00
2023-04-04T18:43:52.828Z,50.00
2023-04-04T18:46:20.753Z,50.00
2023-04-04T18:48:48.732Z,50.00
2023-04-04T18:51:18.054Z,50.60
2023-04-04T18:53:46.378Z,50.00
2023-04-04T18:56:14.273Z,50.00
2023-04-04T18:58:42.866Z,50.00
2023-04-04T19:01:12.734Z,50.00
2023-04-04T19:03:44.319Z,50.00
2023-04-04T19:06:13.304Z,50.00
2023-04-04T19:08:43.566Z,50.00
2023-04-04T19:11:12.214Z,50.00
2023-04-04T19:13:40.241Z,50.00
2023-04-04T19:16:08.191Z,50.00
2023-04-04T19:18:36.146Z,50.60
2023-04-04T19:21:05.485Z,50.00
2023-04-04T19:23:33.444Z,50.00
2023-04-04T19:26:02.909Z,50.00
2023-04-04T19:28:31.013Z,50.00
2023-04-04T19:30:58.971Z,50.00
2023-04-04T19:33:27.483Z,50.00
2023-04-04T19:35:59.022Z,50.00
2023-04-04T19:38:29.514Z,50.00
2023-04-04T19:40:59.926Z,50.00
2023-04-04T19:43:30.138Z,49.90
2023-04-04T19:45:59.427Z,50.00
2023-04-04T19:48:49.000Z,50.00
2023-04-04T19:51:41.084Z,49.90
2023-04-04T19:54:14.808Z,49.90
2023-04-04T19:56:44.322Z,49.90
2023-04-04T19:59:55.635Z,49.90
2023-04-04T20:02:49.820Z,49.90
2023-04-04T20:05:54.083Z,49.90
2023-04-04T20:08:22.362Z,49.90
2023-04-04T20:10:52.100Z,49.90
2023-04-04T20:13:21.410Z,49.90
2023-04-04T20:16:03.420Z,49.90
2023-04-04T20:18:32.903Z,50.00
2023-04-04T20:21:03.385Z,49.90
2023-04-04T20:23:33.014Z,49.90
2023-04-04T20:26:07.181Z,49.90
2023-04-04T20:28:36.232Z,49.90
2023-04-04T20:31:10.211Z,49.90
2023-04-04T20:33:41.413Z,49.90
2023-04-04T20:36:11.757Z,49.90
2023-04-04T20:38:41.905Z,50.00
2023-04-04T20:41:17.684Z,49.90
2023-04-04T20:43:51.534Z,49.90
2023-04-04T20:46:21.718Z,49.90
2023-04-04T20:48:50.575Z,49.90
2023-04-04T20:51:27.701Z,49.90
2023-04-04T20:53:56.821Z,49.90
2023-04-04T20:56:52.495Z,49.90
2023-04-04T20:59:33.089Z,49.90
2023-04-04T21:02:19.807Z,49.90
2023-04-04T21:04:51.388Z,49.90
2023-04-04T21:07:36.428Z,49.90
2023-04-04T21:10:25.249Z,49.90
2023-04-04T21:12:53.305Z,49.90
2023-04-04T21:15:24.316Z,49.90
2023-04-04T21:17:53.585Z,49.90
2023-04-04T21:20:57.136Z,49.90
2023-04-04T21:23:33.105Z,49.90
2023-04-04T21:26:02.482Z,49.90
2023-04-04T21:28:32.583Z,49.90
2023-04-04T21:31:01.187Z,49.90
2023-04-04T21:33:30.469Z,49.90
2023-04-04T21:35:58.409Z,49.70
2023-04-04T21:38:30.323Z,49.80
2023-04-04T21:40:59.616Z,49.80
2023-04-04T21:43:28.293Z,49.90
2023-04-04T21:45:56.829Z,49.90
2023-04-04T21:48:25.133Z,49.80
2023-04-04T21:50:54.611Z,49.80
2023-04-04T21:53:23.633Z,49.70
2023-04-04T21:55:51.502Z,49.80
2023-04-04T21:58:19.414Z,49.80
2023-04-04T22:00:47.301Z,49.80
2023-04-04T22:03:15.454Z,49.70
2023-04-04T22:05:44.226Z,49.70
2023-04-04T22:08:13.406Z,49.80
2023-04-04T22:10:45.592Z,49.70
2023-04-04T22:13:14.769Z,49.70
2023-04-04T22:15:44.090Z,49.70
2023-04-04T22:18:14.861Z,49.70
2023-04-04T22:20:43.811Z,49.70
2023-04-04T22:23:14.103Z,49.70
2023-04-04T22:25:42.231Z,49.70
2023-04-04T22:28:10.420Z,49.80
2023-04-04T22:30:42.029Z,49.70
2023-04-04T22:33:10.600Z,49.70
2023-04-04T22:35:39.435Z,49.70
2023-04-04T22:38:07.413Z,49.70
2023-04-04T22:40:36.692Z,49.70
2023-04-04T22:43:04.590Z,49.60
2023-04-04T22:45:33.675Z,49.80
2023-04-04T22:48:02.244Z,49.60
2023-04-04T22:50:30.612Z,49.70
2023-04-04T22:52:58.776Z,49.70
2023-04-04T22:55:27.590Z,49.60
2023-04-04T22:57:56.798Z,49.60
2023-04-04T23:00:24.775Z,49.60
2023-04-04T23:02:52.638Z,49.60
2023-04-04T23:05:20.571Z,49.60
2023-04-04T23:07:52.581Z,49.60
2023-04-04T23:10:21.078Z,49.60
2023-04-04T23:12:49.045Z,49.60
2023-04-04T23:15:18.297Z,49.60
2023-04-04T23:17:46.557Z,49.60
2023-04-04T23:20:14.614Z,49.70
2023-04-04T23:22:42.892Z,49.60
2023-04-04T23:25:11.110Z,49.60
2023-04-04T23:27:38.986Z,49.60
2023-04-04T23:30:09.738Z,49.60
2023-04-04T23:32:39.028Z,49.60
2023-04-04T23:35:07.456Z,49.60
2023-04-04T23:37:35.318Z,49.60
2023-04-04T23:40:04.677Z,49.70
2023-04-04T23:42:34.856Z,49.60
2023-04-04T23:45:04.628Z,49.60
2023-04-04T23:47:32.977Z,49.60
2023-04-04T23:50:02.263Z,49.60
2023-04-04T23:52:30.297Z,49.60
2023-04-04T23:54:58.165Z,49.60
2023-04-04T23:57:26.031Z,49.60
2023-04-04T23:59:53.889Z,49.60
